sensor_id;sensor_type;location;lat;lon;timestamp;P1;durP1;ratioP1;P2;durP2;ratioP2
8831;SDS011;4452;50.756;4.472;2023-10-31T00:01:36;30.25;;;9.38;;
8831;SDS011;4452;50.756;4.472;2023-10-31T00:04:02;25.10;;;8.57;;
8831;SDS011;4452;50.756;4.472;2023-10-31T00:06:28;32.72;;;10.45;;
8831;SDS011;4452;50.756;4.472;2023-10-31T00:08:53;13.20;;;6.32;;
8831;SDS011;4452;50.756;4.472;2023-10-31T00:11:19;26.65;;;9.18;;
8831;SDS011;4452;50.756;4.472;2023-10-31T00:13:45;22.13;;;8.18;;
8831;SDS011;4452;50.756;4.472;2023-10-31T00:16:11;18.42;;;7.38;;
8831;SDS011;4452;50.756;4.472;2023-10-31T00:18:36;20.67;;;8.27;;
8831;SDS011;4452;50.756;4.472;2023-10-31T00:21:02;25.58;;;8.57;;
8831;SDS011;4452;50.756;4.472;2023-10-31T00:23:29;20.23;;;7.75;;
8831;SDS011;4452;50.756;4.472;2023-10-31T00:25:54;17.65;;;6.32;;
8831;SDS011;4452;50.756;4.472;2023-10-31T00:28:20;26.63;;;8.43;;
8831;SDS011;4452;50.756;4.472;2023-10-31T00:30:45;14.52;;;7.18;;
8831;SDS011;4452;50.756;4.472;2023-10-31T00:33:12;13.70;;;6.18;;
8831;SDS011;4452;50.756;4.472;2023-10-31T00:35:37;20.42;;;7.35;;
8831;SDS011;4452;50.756;4.472;2023-10-31T00:38:03;30.08;;;8.48;;
8831;SDS011;4452;50.756;4.472;2023-10-31T00:40:28;20.65;;;7.28;;
8831;SDS011;4452;50.756;4.472;2023-10-31T00:42:54;18.83;;;7.97;;
8831;SDS011;4452;50.756;4.472;2023-10-31T00:45:22;25.85;;;7.40;;
8831;SDS011;4452;50.756;4.472;2023-10-31T00:47:47;23.52;;;7.82;;
8831;SDS011;4452;50.756;4.472;2023-10-31T00:50:13;18.38;;;7.22;;
8831;SDS011;4452;50.756;4.472;2023-10-31T00:52:39;21.48;;;6.65;;
8831;SDS011;4452;50.756;4.472;2023-10-31T00:55:04;24.98;;;7.72;;
8831;SDS011;4452;50.756;4.472;2023-10-31T00:57:30;24.02;;;8.40;;
8831;SDS011;4452;50.756;4.472;2023-10-31T00:59:56;27.25;;;8.57;;
8831;SDS011;4452;50.756;4.472;2023-10-31T01:02:21;16.73;;;6.05;;
8831;SDS011;4452;50.756;4.472;2023-10-31T01:04:47;26.08;;;7.15;;
8831;SDS011;4452;50.756;4.472;2023-10-31T01:07:12;17.67;;;7.13;;
8831;SDS011;4452;50.756;4.472;2023-10-31T01:09:42;16.65;;;6.60;;
8831;SDS011;4452;50.756;4.472;2023-10-31T01:12:08;17.02;;;7.82;;
8831;SDS011;4452;50.756;4.472;2023-10-31T01:14:35;21.33;;;9.70;;
8831;SDS011;4452;50.756;4.472;2023-10-31T01:17:01;18.95;;;8.52;;
8831;SDS011;4452;50.756;4.472;2023-10-31T01:19:26;17.73;;;7.32;;
8831;SDS011;4452;50.756;4.472;2023-10-31T01:21:52;20.60;;;8.35;;
8831;SDS011;4452;50.756;4.472;2023-10-31T01:24:17;23.92;;;8.48;;
8831;SDS011;4452;50.756;4.472;2023-10-31T01:26:43;12.00;;;7.90;;
8831;SDS011;4452;50.756;4.472;2023-10-31T01:29:09;20.55;;;8.75;;
8831;SDS011;4452;50.756;4.472;2023-10-31T01:31:34;19.42;;;8.93;;
8831;SDS011;4452;50.756;4.472;2023-10-31T01:34:02;17.00;;;9.20;;
8831;SDS011;4452;50.756;4.472;2023-10-31T01:36:28;19.17;;;8.50;;
8831;SDS011;4452;50.756;4.472;2023-10-31T01:38:53;16.23;;;8.07;;
8831;SDS011;4452;50.756;4.472;2023-10-31T01:41:19;22.00;;;10.48;;
8831;SDS011;4452;50.756;4.472;2023-10-31T01:43:44;20.92;;;9.07;;
8831;SDS011;4452;50.756;4.472;2023-10-31T01:46:10;21.15;;;9.15;;
8831;SDS011;4452;50.756;4.472;2023-10-31T01:48:36;15.85;;;8.10;;
8831;SDS011;4452;50.756;4.472;2023-10-31T01:51:02;13.55;;;7.60;;
8831;SDS011;4452;50.756;4.472;2023-10-31T01:53:29;16.98;;;7.97;;
8831;SDS011;4452;50.756;4.472;2023-10-31T01:55:58;13.38;;;7.47;;
8831;SDS011;4452;50.756;4.472;2023-10-31T01:58:30;14.25;;;7.22;;
8831;SDS011;4452;50.756;4.472;2023-10-31T02:00:59;9.25;;;5.72;;
8831;SDS011;4452;50.756;4.472;2023-10-31T02:03:25;10.23;;;6.82;;
8831;SDS011;4452;50.756;4.472;2023-10-31T02:05:54;9.90;;;6.68;;
8831;SDS011;4452;50.756;4.472;2023-10-31T02:08:20;15.07;;;6.85;;
8831;SDS011;4452;50.756;4.472;2023-10-31T02:10:46;9.30;;;5.63;;
8831;SDS011;4452;50.756;4.472;2023-10-31T02:15:38;9.73;;;6.65;;
8831;SDS011;4452;50.756;4.472;2023-10-31T02:18:04;7.03;;;5.40;;
8831;SDS011;4452;50.756;4.472;2023-10-31T02:20:30;10.13;;;6.07;;
8831;SDS011;4452;50.756;4.472;2023-10-31T02:22:56;8.35;;;4.90;;
8831;SDS011;4452;50.756;4.472;2023-10-31T02:25:22;11.70;;;6.38;;
8831;SDS011;4452;50.756;4.472;2023-10-31T02:27:47;8.40;;;4.45;;
8831;SDS011;4452;50.756;4.472;2023-10-31T02:30:13;11.48;;;6.32;;
8831;SDS011;4452;50.756;4.472;2023-10-31T02:32:39;9.65;;;5.80;;
8831;SDS011;4452;50.756;4.472;2023-10-31T02:35:06;8.93;;;6.28;;
8831;SDS011;4452;50.756;4.472;2023-10-31T02:37:32;5.07;;;4.57;;
8831;SDS011;4452;50.756;4.472;2023-10-31T02:39:57;8.20;;;5.78;;
8831;SDS011;4452;50.756;4.472;2023-10-31T02:42:24;11.27;;;6.00;;
8831;SDS011;4452;50.756;4.472;2023-10-31T02:44:50;9.38;;;5.53;;
8831;SDS011;4452;50.756;4.472;2023-10-31T02:47:16;9.98;;;5.28;;
8831;SDS011;4452;50.756;4.472;2023-10-31T02:49:41;9.30;;;6.60;;
8831;SDS011;4452;50.756;4.472;2023-10-31T02:52:07;9.55;;;5.25;;
8831;SDS011;4452;50.756;4.472;2023-10-31T02:54:33;7.53;;;5.30;;
8831;SDS011;4452;50.756;4.472;2023-10-31T02:56:58;8.57;;;5.05;;
8831;SDS011;4452;50.756;4.472;2023-10-31T02:59:24;6.93;;;4.60;;
8831;SDS011;4452;50.756;4.472;2023-10-31T03:01:50;5.30;;;4.07;;
8831;SDS011;4452;50.756;4.472;2023-10-31T03:04:16;4.88;;;4.47;;
8831;SDS011;4452;50.756;4.472;2023-10-31T03:06:41;5.22;;;3.92;;
8831;SDS011;4452;50.756;4.472;2023-10-31T03:09:07;9.13;;;5.75;;
8831;SDS011;4452;50.756;4.472;2023-10-31T03:11:33;9.27;;;6.43;;
8831;SDS011;4452;50.756;4.472;2023-10-31T03:13:59;6.72;;;5.97;;
8831;SDS011;4452;50.756;4.472;2023-10-31T03:16:24;11.88;;;5.13;;
8831;SDS011;4452;50.756;4.472;2023-10-31T03:18:50;7.68;;;5.47;;
8831;SDS011;4452;50.756;4.472;2023-10-31T03:21:16;8.02;;;5.95;;
8831;SDS011;4452;50.756;4.472;2023-10-31T03:23:43;13.70;;;6.47;;
8831;SDS011;4452;50.756;4.472;2023-10-31T03:26:11;9.57;;;6.10;;
8831;SDS011;4452;50.756;4.472;2023-10-31T03:28:38;8.10;;;6.95;;
8831;SDS011;4452;50.756;4.472;2023-10-31T03:31:03;8.70;;;6.30;;
8831;SDS011;4452;50.756;4.472;2023-10-31T03:33:29;9.45;;;6.35;;
8831;SDS011;4452;50.756;4.472;2023-10-31T03:35:55;11.88;;;6.70;;
8831;SDS011;4452;50.756;4.472;2023-10-31T03:38:21;8.43;;;5.57;;
8831;SDS011;4452;50.756;4.472;2023-10-31T03:40:46;8.77;;;6.10;;
8831;SDS011;4452;50.756;4.472;2023-10-31T03:43:12;6.97;;;5.65;;
8831;SDS011;4452;50.756;4.472;2023-10-31T03:45:38;7.95;;;5.85;;
8831;SDS011;4452;50.756;4.472;2023-10-31T03:48:03;9.40;;;5.88;;
8831;SDS011;4452;50.756;4.472;2023-10-31T03:50:29;8.02;;;5.22;;
8831;SDS011;4452;50.756;4.472;2023-10-31T03:52:55;9.55;;;6.63;;
8831;SDS011;4452;50.756;4.472;2023-10-31T03:55:20;9.23;;;5.20;;
8831;SDS011;4452;50.756;4.472;2023-10-31T03:57:46;12.48;;;6.78;;
8831;SDS011;4452;50.756;4.472;2023-10-31T04:00:12;8.52;;;5.90;;
8831;SDS011;4452;50.756;4.472;2023-10-31T04:02:39;12.07;;;7.55;;
8831;SDS011;4452;50.756;4.472;2023-10-31T04:05:05;8.77;;;5.85;;
8831;SDS011;4452;50.756;4.472;2023-10-31T04:07:31;8.82;;;5.75;;
8831;SDS011;4452;50.756;4.472;2023-10-31T04:09:57;10.48;;;5.80;;
8831;SDS011;4452;50.756;4.472;2023-10-31T04:12:23;9.63;;;4.57;;
8831;SDS011;4452;50.756;4.472;2023-10-31T04:14:48;6.28;;;5.32;;
8831;SDS011;4452;50.756;4.472;2023-10-31T04:17:14;13.32;;;8.05;;
8831;SDS011;4452;50.756;4.472;2023-10-31T04:19:40;16.63;;;7.53;;
8831;SDS011;4452;50.756;4.472;2023-10-31T04:22:05;11.48;;;6.07;;
8831;SDS011;4452;50.756;4.472;2023-10-31T04:24:31;12.95;;;7.63;;
8831;SDS011;4452;50.756;4.472;2023-10-31T04:26:56;14.95;;;7.53;;
8831;SDS011;4452;50.756;4.472;2023-10-31T04:29:22;13.90;;;8.70;;
8831;SDS011;4452;50.756;4.472;2023-10-31T04:31:48;12.95;;;7.63;;
8831;SDS011;4452;50.756;4.472;2023-10-31T04:34:14;11.63;;;7.47;;
8831;SDS011;4452;50.756;4.472;2023-10-31T04:36:39;18.98;;;8.07;;
8831;SDS011;4452;50.756;4.472;2023-10-31T04:39:05;13.25;;;7.30;;
8831;SDS011;4452;50.756;4.472;2023-10-31T04:41:31;14.40;;;7.28;;
8831;SDS011;4452;50.756;4.472;2023-10-31T04:43:57;16.67;;;8.25;;
8831;SDS011;4452;50.756;4.472;2023-10-31T04:46:22;16.70;;;8.48;;
8831;SDS011;4452;50.756;4.472;2023-10-31T04:48:51;14.35;;;6.88;;
8831;SDS011;4452;50.756;4.472;2023-10-31T04:51:18;14.23;;;7.60;;
8831;SDS011;4452;50.756;4.472;2023-10-31T04:53:44;13.63;;;7.57;;
8831;SDS011;4452;50.756;4.472;2023-10-31T04:56:13;7.95;;;6.93;;
8831;SDS011;4452;50.756;4.472;2023-10-31T04:58:39;12.93;;;6.95;;
8831;SDS011;4452;50.756;4.472;2023-10-31T05:01:09;14.98;;;7.57;;
8831;SDS011;4452;50.756;4.472;2023-10-31T05:03:36;11.68;;;7.25;;
8831;SDS011;4452;50.756;4.472;2023-10-31T05:06:02;12.65;;;7.40;;
8831;SDS011;4452;50.756;4.472;2023-10-31T05:08:28;10.60;;;6.85;;
8831;SDS011;4452;50.756;4.472;2023-10-31T05:10:54;13.32;;;8.07;;
8831;SDS011;4452;50.756;4.472;2023-10-31T05:13:20;15.98;;;7.72;;
8831;SDS011;4452;50.756;4.472;2023-10-31T05:15:46;10.18;;;6.53;;
8831;SDS011;4452;50.756;4.472;2023-10-31T05:18:11;13.77;;;7.38;;
8831;SDS011;4452;50.756;4.472;2023-10-31T05:20:37;13.32;;;7.60;;
8831;SDS011;4452;50.756;4.472;2023-10-31T05:23:03;16.55;;;8.05;;
8831;SDS011;4452;50.756;4.472;2023-10-31T05:25:28;12.40;;;6.13;;
8831;SDS011;4452;50.756;4.472;2023-10-31T05:27:54;18.35;;;7.85;;
8831;SDS011;4452;50.756;4.472;2023-10-31T05:30:20;11.65;;;7.03;;
8831;SDS011;4452;50.756;4.472;2023-10-31T05:32:46;11.45;;;7.03;;
8831;SDS011;4452;50.756;4.472;2023-10-31T05:35:12;13.40;;;7.80;;
8831;SDS011;4452;50.756;4.472;2023-10-31T05:37:37;10.75;;;5.90;;
8831;SDS011;4452;50.756;4.472;2023-10-31T05:40:03;11.38;;;5.78;;
8831;SDS011;4452;50.756;4.472;2023-10-31T05:42:29;12.25;;;7.22;;
8831;SDS011;4452;50.756;4.472;2023-10-31T05:44:55;18.30;;;8.10;;
8831;SDS011;4452;50.756;4.472;2023-10-31T05:47:22;19.13;;;8.85;;
8831;SDS011;4452;50.756;4.472;2023-10-31T05:49:48;13.30;;;6.85;;
8831;SDS011;4452;50.756;4.472;2023-10-31T05:52:13;19.48;;;7.97;;
8831;SDS011;4452;50.756;4.472;2023-10-31T05:54:39;14.55;;;8.70;;
8831;SDS011;4452;50.756;4.472;2023-10-31T05:57:05;11.65;;;6.68;;
8831;SDS011;4452;50.756;4.472;2023-10-31T05:59:30;14.57;;;7.53;;
8831;SDS011;4452;50.756;4.472;2023-10-31T06:01:57;12.77;;;7.28;;
8831;SDS011;4452;50.756;4.472;2023-10-31T06:04:23;17.33;;;8.60;;
8831;SDS011;4452;50.756;4.472;2023-10-31T06:06:50;13.13;;;7.30;;
8831;SDS011;4452;50.756;4.472;2023-10-31T06:09:16;7.35;;;5.55;;
8831;SDS011;4452;50.756;4.472;2023-10-31T06:11:42;13.05;;;7.05;;
8831;SDS011;4452;50.756;4.472;2023-10-31T06:14:08;14.63;;;7.05;;
8831;SDS011;4452;50.756;4.472;2023-10-31T06:16:40;17.40;;;7.40;;
8831;SDS011;4452;50.756;4.472;2023-10-31T06:19:07;15.00;;;6.50;;
8831;SDS011;4452;50.756;4.472;2023-10-31T06:21:33;10.45;;;6.82;;
8831;SDS011;4452;50.756;4.472;2023-10-31T06:23:58;11.70;;;6.63;;
8831;SDS011;4452;50.756;4.472;2023-10-31T06:26:24;9.15;;;5.75;;
8831;SDS011;4452;50.756;4.472;2023-10-31T06:28:50;12.10;;;7.03;;
8831;SDS011;4452;50.756;4.472;2023-10-31T06:31:15;13.73;;;7.20;;
8831;SDS011;4452;50.756;4.472;2023-10-31T06:33:41;8.30;;;5.88;;
8831;SDS011;4452;50.756;4.472;2023-10-31T06:36:07;9.82;;;6.30;;
8831;SDS011;4452;50.756;4.472;2023-10-31T06:38:33;9.88;;;6.32;;
8831;SDS011;4452;50.756;4.472;2023-10-31T06:40:58;11.95;;;7.70;;
8831;SDS011;4452;50.756;4.472;2023-10-31T06:43:24;13.48;;;6.95;;
8831;SDS011;4452;50.756;4.472;2023-10-31T06:45:50;11.45;;;6.30;;
8831;SDS011;4452;50.756;4.472;2023-10-31T06:48:16;11.70;;;7.20;;
8831;SDS011;4452;50.756;4.472;2023-10-31T06:50:42;11.95;;;6.40;;
8831;SDS011;4452;50.756;4.472;2023-10-31T06:53:07;9.52;;;5.82;;
8831;SDS011;4452;50.756;4.472;2023-10-31T06:55:33;10.48;;;6.45;;
8831;SDS011;4452;50.756;4.472;2023-10-31T06:57:59;6.90;;;5.43;;
8831;SDS011;4452;50.756;4.472;2023-10-31T07:00:24;11.95;;;6.57;;
8831;SDS011;4452;50.756;4.472;2023-10-31T07:02:50;12.73;;;6.35;;
8831;SDS011;4452;50.756;4.472;2023-10-31T07:05:16;10.52;;;6.53;;
8831;SDS011;4452;50.756;4.472;2023-10-31T07:07:42;13.25;;;6.47;;
8831;SDS011;4452;50.756;4.472;2023-10-31T07:10:07;10.50;;;7.07;;
8831;SDS011;4452;50.756;4.472;2023-10-31T07:12:33;8.32;;;5.63;;
8831;SDS011;4452;50.756;4.472;2023-10-31T07:14:59;10.48;;;6.57;;
8831;SDS011;4452;50.756;4.472;2023-10-31T07:17:25;11.43;;;6.88;;
8831;SDS011;4452;50.756;4.472;2023-10-31T07:19:51;13.38;;;7.00;;
8831;SDS011;4452;50.756;4.472;2023-10-31T07:22:16;18.08;;;7.80;;
8831;SDS011;4452;50.756;4.472;2023-10-31T07:24:42;11.60;;;6.80;;
8831;SDS011;4452;50.756;4.472;2023-10-31T07:27:08;12.68;;;7.25;;
8831;SDS011;4452;50.756;4.472;2023-10-31T07:29:34;10.82;;;6.50;;
8831;SDS011;4452;50.756;4.472;2023-10-31T07:32:00;7.25;;;5.03;;
8831;SDS011;4452;50.756;4.472;2023-10-31T07:34:26;7.22;;;4.68;;
8831;SDS011;4452;50.756;4.472;2023-10-31T07:36:54;8.63;;;5.85;;
8831;SDS011;4452;50.756;4.472;2023-10-31T07:39:19;8.63;;;6.05;;
8831;SDS011;4452;50.756;4.472;2023-10-31T07:41:45;9.07;;;6.18;;
8831;SDS011;4452;50.756;4.472;2023-10-31T07:44:11;9.63;;;5.15;;
8831;SDS011;4452;50.756;4.472;2023-10-31T07:46:37;12.52;;;7.07;;
8831;SDS011;4452;50.756;4.472;2023-10-31T07:49:02;9.57;;;5.82;;
8831;SDS011;4452;50.756;4.472;2023-10-31T07:51:28;9.40;;;5.05;;
8831;SDS011;4452;50.756;4.472;2023-10-31T07:53:54;11.68;;;7.40;;
8831;SDS011;4452;50.756;4.472;2023-10-31T07:56:20;13.73;;;7.07;;
8831;SDS011;4452;50.756;4.472;2023-10-31T07:58:48;10.52;;;7.07;;
8831;SDS011;4452;50.756;4.472;2023-10-31T08:01:16;12.82;;;6.70;;
8831;SDS011;4452;50.756;4.472;2023-10-31T08:03:45;7.22;;;5.60;;
8831;SDS011;4452;50.756;4.472;2023-10-31T08:06:12;7.72;;;5.35;;
8831;SDS011;4452;50.756;4.472;2023-10-31T08:08:38;11.10;;;5.95;;
8831;SDS011;4452;50.756;4.472;2023-10-31T08:11:03;8.18;;;5.97;;
8831;SDS011;4452;50.756;4.472;2023-10-31T08:13:32;14.18;;;6.70;;
8831;SDS011;4452;50.756;4.472;2023-10-31T08:15:58;12.43;;;7.05;;
8831;SDS011;4452;50.756;4.472;2023-10-31T08:18:23;20.27;;;7.25;;
8831;SDS011;4452;50.756;4.472;2023-10-31T08:20:49;15.13;;;6.70;;
8831;SDS011;4452;50.756;4.472;2023-10-31T08:23:16;8.68;;;6.07;;
8831;SDS011;4452;50.756;4.472;2023-10-31T08:25:42;19.65;;;6.60;;
8831;SDS011;4452;50.756;4.472;2023-10-31T08:28:09;14.13;;;7.13;;
8831;SDS011;4452;50.756;4.472;2023-10-31T08:30:34;7.30;;;5.03;;
8831;SDS011;4452;50.756;4.472;2023-10-31T08:33:00;7.78;;;5.72;;
8831;SDS011;4452;50.756;4.472;2023-10-31T08:35:26;11.38;;;6.50;;
8831;SDS011;4452;50.756;4.472;2023-10-31T08:37:53;14.27;;;6.35;;
8831;SDS011;4452;50.756;4.472;2023-10-31T08:40:19;10.85;;;5.95;;
8831;SDS011;4452;50.756;4.472;2023-10-31T08:42:45;9.45;;;6.50;;
8831;SDS011;4452;50.756;4.472;2023-10-31T08:45:10;12.02;;;5.25;;
8831;SDS011;4452;50.756;4.472;2023-10-31T08:47:36;16.00;;;7.10;;
8831;SDS011;4452;50.756;4.472;2023-10-31T08:50:02;10.30;;;5.05;;
8831;SDS011;4452;50.756;4.472;2023-10-31T08:52:27;17.92;;;6.57;;
8831;SDS011;4452;50.756;4.472;2023-10-31T08:54:53;12.23;;;7.00;;
8831;SDS011;4452;50.756;4.472;2023-10-31T08:57:19;9.18;;;5.93;;
8831;SDS011;4452;50.756;4.472;2023-10-31T08:59:44;15.73;;;7.20;;
8831;SDS011;4452;50.756;4.472;2023-10-31T09:02:10;10.60;;;6.82;;
8831;SDS011;4452;50.756;4.472;2023-10-31T09:04:36;7.85;;;4.55;;
8831;SDS011;4452;50.756;4.472;2023-10-31T09:07:01;11.65;;;6.18;;
8831;SDS011;4452;50.756;4.472;2023-10-31T09:09:27;14.77;;;6.22;;
8831;SDS011;4452;50.756;4.472;2023-10-31T09:11:53;10.65;;;5.85;;
8831;SDS011;4452;50.756;4.472;2023-10-31T09:14:18;13.15;;;6.38;;
8831;SDS011;4452;50.756;4.472;2023-10-31T09:16:44;7.75;;;5.85;;
8831;SDS011;4452;50.756;4.472;2023-10-31T09:19:10;10.20;;;5.05;;
8831;SDS011;4452;50.756;4.472;2023-10-31T09:21:36;5.63;;;3.88;;
8831;SDS011;4452;50.756;4.472;2023-10-31T09:24:02;8.30;;;5.75;;
8831;SDS011;4452;50.756;4.472;2023-10-31T09:26:28;11.00;;;4.82;;
8831;SDS011;4452;50.756;4.472;2023-10-31T09:28:53;8.15;;;5.70;;
8831;SDS011;4452;50.756;4.472;2023-10-31T09:31:20;8.60;;;4.32;;
8831;SDS011;4452;50.756;4.472;2023-10-31T09:33:46;9.65;;;4.55;;
8831;SDS011;4452;50.756;4.472;2023-10-31T09:36:11;12.30;;;5.03;;
8831;SDS011;4452;50.756;4.472;2023-10-31T09:38:38;6.95;;;4.22;;
8831;SDS011;4452;50.756;4.472;2023-10-31T09:41:04;10.02;;;4.93;;
8831;SDS011;4452;50.756;4.472;2023-10-31T09:43:30;8.52;;;3.83;;
8831;SDS011;4452;50.756;4.472;2023-10-31T09:45:57;10.23;;;4.75;;
8831;SDS011;4452;50.756;4.472;2023-10-31T09:48:23;5.25;;;3.83;;
8831;SDS011;4452;50.756;4.472;2023-10-31T09:50:49;8.15;;;4.60;;
8831;SDS011;4452;50.756;4.472;2023-10-31T09:53:15;11.60;;;5.10;;
8831;SDS011;4452;50.756;4.472;2023-10-31T09:55:42;6.47;;;4.75;;
8831;SDS011;4452;50.756;4.472;2023-10-31T09:58:08;5.18;;;4.30;;
8831;SDS011;4452;50.756;4.472;2023-10-31T10:00:34;11.80;;;5.50;;
8831;SDS011;4452;50.756;4.472;2023-10-31T10:03:02;9.48;;;4.43;;
8831;SDS011;4452;50.756;4.472;2023-10-31T10:05:28;5.22;;;3.67;;
8831;SDS011;4452;50.756;4.472;2023-10-31T10:07:56;5.97;;;3.50;;
8831;SDS011;4452;50.756;4.472;2023-10-31T10:10:23;12.93;;;4.28;;
8831;SDS011;4452;50.756;4.472;2023-10-31T10:12:51;10.85;;;4.60;;
8831;SDS011;4452;50.756;4.472;2023-10-31T10:15:17;6.85;;;3.90;;
8831;SDS011;4452;50.756;4.472;2023-10-31T10:17:48;8.43;;;3.80;;
8831;SDS011;4452;50.756;4.472;2023-10-31T10:20:15;8.80;;;4.65;;
8831;SDS011;4452;50.756;4.472;2023-10-31T10:22:41;13.73;;;4.53;;
8831;SDS011;4452;50.756;4.472;2023-10-31T10:25:12;8.57;;;3.65;;
8831;SDS011;4452;50.756;4.472;2023-10-31T10:27:42;5.57;;;3.83;;
8831;SDS011;4452;50.756;4.472;2023-10-31T10:30:08;12.00;;;3.20;;
8831;SDS011;4452;50.756;4.472;2023-10-31T10:32:35;9.90;;;4.18;;
8831;SDS011;4452;50.756;4.472;2023-10-31T10:35:00;12.70;;;4.28;;
8831;SDS011;4452;50.756;4.472;2023-10-31T10:37:26;11.73;;;4.22;;
8831;SDS011;4452;50.756;4.472;2023-10-31T10:39:53;7.30;;;3.83;;
8831;SDS011;4452;50.756;4.472;2023-10-31T10:42:21;6.07;;;3.40;;
8831;SDS011;4452;50.756;4.472;2023-10-31T10:45:05;5.00;;;3.75;;
8831;SDS011;4452;50.756;4.472;2023-10-31T10:47:34;5.85;;;3.88;;
8831;SDS011;4452;50.756;4.472;2023-10-31T10:50:01;5.20;;;3.72;;
8831;SDS011;4452;50.756;4.472;2023-10-31T10:52:29;12.95;;;5.25;;
8831;SDS011;4452;50.756;4.472;2023-10-31T10:57:36;9.85;;;5.25;;
8831;SDS011;4452;50.756;4.472;2023-10-31T11:00:05;13.85;;;4.45;;
8831;SDS011;4452;50.756;4.472;2023-10-31T11:02:39;4.93;;;4.15;;
8831;SDS011;4452;50.756;4.472;2023-10-31T11:05:08;10.40;;;4.35;;
8831;SDS011;4452;50.756;4.472;2023-10-31T11:07:34;13.18;;;5.18;;
8831;SDS011;4452;50.756;4.472;2023-10-31T11:10:01;8.10;;;5.20;;
8831;SDS011;4452;50.756;4.472;2023-10-31T11:12:31;11.52;;;4.45;;
8831;SDS011;4452;50.756;4.472;2023-10-31T11:14:58;11.20;;;5.55;;
8831;SDS011;4452;50.756;4.472;2023-10-31T11:17:34;7.78;;;4.60;;
8831;SDS011;4452;50.756;4.472;2023-10-31T11:20:03;7.90;;;4.80;;
8831;SDS011;4452;50.756;4.472;2023-10-31T11:22:40;10.07;;;4.85;;
8831;SDS011;4452;50.756;4.472;2023-10-31T11:25:19;5.90;;;4.18;;
8831;SDS011;4452;50.756;4.472;2023-10-31T11:27:49;13.95;;;5.10;;
8831;SDS011;4452;50.756;4.472;2023-10-31T11:32:57;11.27;;;5.25;;
8831;SDS011;4452;50.756;4.472;2023-10-31T11:35:30;6.25;;;4.13;;
8831;SDS011;4452;50.756;4.472;2023-10-31T11:38:16;9.90;;;6.20;;
8831;SDS011;4452;50.756;4.472;2023-10-31T11:43:26;5.88;;;4.38;;
8831;SDS011;4452;50.756;4.472;2023-10-31T11:46:22;7.15;;;4.57;;
8831;SDS011;4452;50.756;4.472;2023-10-31T11:48:53;8.75;;;4.15;;
8831;SDS011;4452;50.756;4.472;2023-10-31T11:51:21;6.82;;;4.43;;
8831;SDS011;4452;50.756;4.472;2023-10-31T11:53:50;9.10;;;4.72;;
8831;SDS011;4452;50.756;4.472;2023-10-31T11:56:16;6.10;;;3.85;;
8831;SDS011;4452;50.756;4.472;2023-10-31T11:58:42;6.82;;;3.97;;
8831;SDS011;4452;50.756;4.472;2023-10-31T12:01:08;5.30;;;3.47;;
8831;SDS011;4452;50.756;4.472;2023-10-31T12:03:38;8.20;;;3.53;;
8831;SDS011;4452;50.756;4.472;2023-10-31T12:06:12;8.18;;;4.35;;
8831;SDS011;4452;50.756;4.472;2023-10-31T12:08:42;5.25;;;3.65;;
8831;SDS011;4452;50.756;4.472;2023-10-31T12:11:12;10.85;;;4.15;;
8831;SDS011;4452;50.756;4.472;2023-10-31T12:16:28;7.60;;;4.50;;
8831;SDS011;4452;50.756;4.472;2023-10-31T12:18:58;4.95;;;4.18;;
8831;SDS011;4452;50.756;4.472;2023-10-31T12:24:04;6.32;;;3.65;;
8831;SDS011;4452;50.756;4.472;2023-10-31T12:26:34;6.50;;;3.13;;
8831;SDS011;4452;50.756;4.472;2023-10-31T12:29:13;11.13;;;4.13;;
8831;SDS011;4452;50.756;4.472;2023-10-31T12:31:43;7.20;;;4.68;;
8831;SDS011;4452;50.756;4.472;2023-10-31T12:34:10;9.57;;;3.20;;
8831;SDS011;4452;50.756;4.472;2023-10-31T12:36:36;8.60;;;3.50;;
8831;SDS011;4452;50.756;4.472;2023-10-31T12:39:07;7.32;;;3.80;;
8831;SDS011;4452;50.756;4.472;2023-10-31T12:41:35;5.40;;;3.80;;
8831;SDS011;4452;50.756;4.472;2023-10-31T12:44:02;4.88;;;3.03;;
8831;SDS011;4452;50.756;4.472;2023-10-31T12:46:29;4.07;;;3.55;;
8831;SDS011;4452;50.756;4.472;2023-10-31T12:48:59;3.30;;;3.00;;
8831;SDS011;4452;50.756;4.472;2023-10-31T12:51:25;4.43;;;3.10;;
8831;SDS011;4452;50.756;4.472;2023-10-31T12:53:51;4.00;;;3.60;;
8831;SDS011;4452;50.756;4.472;2023-10-31T12:56:37;2.80;;;2.60;;
8831;SDS011;4452;50.756;4.472;2023-10-31T12:59:04;4.50;;;2.90;;
8831;SDS011;4452;50.756;4.472;2023-10-31T13:01:33;2.60;;;2.50;;
8831;SDS011;4452;50.756;4.472;2023-10-31T13:04:07;2.40;;;2.22;;
8831;SDS011;4452;50.756;4.472;2023-10-31T13:06:32;2.75;;;2.45;;
8831;SDS011;4452;50.756;4.472;2023-10-31T13:08:58;5.07;;;2.95;;
8831;SDS011;4452;50.756;4.472;2023-10-31T13:11:28;2.95;;;2.72;;
8831;SDS011;4452;50.756;4.472;2023-10-31T13:13:54;5.40;;;2.92;;
8831;SDS011;4452;50.756;4.472;2023-10-31T13:16:20;4.05;;;2.65;;
8831;SDS011;4452;50.756;4.472;2023-10-31T13:18:46;5.20;;;3.65;;
8831;SDS011;4452;50.756;4.472;2023-10-31T13:21:12;7.05;;;3.20;;
8831;SDS011;4452;50.756;4.472;2023-10-31T13:23:39;5.75;;;2.95;;
8831;SDS011;4452;50.756;4.472;2023-10-31T13:26:08;5.80;;;3.38;;
8831;SDS011;4452;50.756;4.472;2023-10-31T13:28:34;4.65;;;2.80;;
8831;SDS011;4452;50.756;4.472;2023-10-31T13:31:00;3.60;;;3.17;;
8831;SDS011;4452;50.756;4.472;2023-10-31T13:33:27;4.18;;;3.67;;
8831;SDS011;4452;50.756;4.472;2023-10-31T13:35:53;4.68;;;3.15;;
8831;SDS011;4452;50.756;4.472;2023-10-31T13:38:18;8.57;;;4.57;;
8831;SDS011;4452;50.756;4.472;2023-10-31T13:40:44;6.38;;;3.70;;
8831;SDS011;4452;50.756;4.472;2023-10-31T13:43:10;5.85;;;2.95;;
8831;SDS011;4452;50.756;4.472;2023-10-31T13:45:35;13.40;;;4.53;;
8831;SDS011;4452;50.756;4.472;2023-10-31T13:48:01;5.88;;;4.03;;
8831;SDS011;4452;50.756;4.472;2023-10-31T13:50:28;4.07;;;3.50;;
8831;SDS011;4452;50.756;4.472;2023-10-31T13:52:53;3.67;;;3.03;;
8831;SDS011;4452;50.756;4.472;2023-10-31T13:55:19;9.40;;;4.20;;
8831;SDS011;4452;50.756;4.472;2023-10-31T13:57:45;9.63;;;4.65;;
8831;SDS011;4452;50.756;4.472;2023-10-31T14:00:11;4.38;;;3.80;;
8831;SDS011;4452;50.756;4.472;2023-10-31T14:02:37;17.90;;;5.32;;
8831;SDS011;4452;50.756;4.472;2023-10-31T14:05:04;6.57;;;3.83;;
8831;SDS011;4452;50.756;4.472;2023-10-31T14:07:30;4.20;;;2.95;;
8831;SDS011;4452;50.756;4.472;2023-10-31T14:09:55;7.30;;;3.58;;
8831;SDS011;4452;50.756;4.472;2023-10-31T14:12:22;8.77;;;4.63;;
8831;SDS011;4452;50.756;4.472;2023-10-31T14:14:48;7.00;;;4.72;;
8831;SDS011;4452;50.756;4.472;2023-10-31T14:17:14;6.30;;;4.60;;
8831;SDS011;4452;50.756;4.472;2023-10-31T14:19:41;9.65;;;5.90;;
8831;SDS011;4452;50.756;4.472;2023-10-31T14:22:07;8.15;;;5.10;;
8831;SDS011;4452;50.756;4.472;2023-10-31T14:24:33;10.52;;;5.32;;
8831;SDS011;4452;50.756;4.472;2023-10-31T14:27:00;14.13;;;5.38;;
8831;SDS011;4452;50.756;4.472;2023-10-31T14:29:25;8.93;;;5.32;;
8831;SDS011;4452;50.756;4.472;2023-10-31T14:31:51;13.90;;;6.72;;
8831;SDS011;4452;50.756;4.472;2023-10-31T14:34:19;15.85;;;6.10;;
8831;SDS011;4452;50.756;4.472;2023-10-31T14:36:46;13.52;;;5.47;;
8831;SDS011;4452;50.756;4.472;2023-10-31T14:39:12;5.88;;;4.22;;
8831;SDS011;4452;50.756;4.472;2023-10-31T14:41:38;8.98;;;5.13;;
8831;SDS011;4452;50.756;4.472;2023-10-31T14:44:04;8.70;;;5.10;;
8831;SDS011;4452;50.756;4.472;2023-10-31T14:46:30;9.35;;;5.30;;
8831;SDS011;4452;50.756;4.472;2023-10-31T14:48:57;4.07;;;3.60;;
8831;SDS011;4452;50.756;4.472;2023-10-31T14:51:23;21.50;;;6.00;;
8831;SDS011;4452;50.756;4.472;2023-10-31T14:53:48;11.48;;;5.63;;
8831;SDS011;4452;50.756;4.472;2023-10-31T14:56:14;12.55;;;4.97;;
8831;SDS011;4452;50.756;4.472;2023-10-31T14:58:40;6.30;;;3.40;;
8831;SDS011;4452;50.756;4.472;2023-10-31T15:01:06;9.18;;;4.97;;
8831;SDS011;4452;50.756;4.472;2023-10-31T15:03:32;6.22;;;3.38;;
8831;SDS011;4452;50.756;4.472;2023-10-31T15:05:58;15.35;;;4.60;;
8831;SDS011;4452;50.756;4.472;2023-10-31T15:08:24;6.95;;;4.20;;
8831;SDS011;4452;50.756;4.472;2023-10-31T15:10:50;4.32;;;3.42;;
8831;SDS011;4452;50.756;4.472;2023-10-31T15:13:17;6.65;;;3.88;;
8831;SDS011;4452;50.756;4.472;2023-10-31T15:15:43;10.35;;;4.32;;
8831;SDS011;4452;50.756;4.472;2023-10-31T15:18:08;13.10;;;4.50;;
8831;SDS011;4452;50.756;4.472;2023-10-31T15:20:34;8.13;;;4.47;;